Council Bluffs, Iowa
Current Conditions -  °F | °C
As of 4:52 AM on Wednesday 22 Oct 2014 (Local Time) from KOMA Reporting Station
Broken Clouds Broken Clouds  
Wind Chill: 55°   Ceiling: 3700
Heat Index: 55°   Visibility: 10mi
Dew Point: 44°   Wind: 15mph
Humidity: 67%   Direction: 150°SSE
Pressure: 30.1"   Gusts: NA
Location:  41.26°N, 95.85°W
Report Text: KOMA 220952Z 15013KT 10SM BKN037 13/07 A3010 RMK AO2 SLP191 T01280067
Loading
Personal Weather Stations






























Interactive Weather Map New forecast layout! Learn more

10-Day Weather Forecast

Advertisements
Track Severe Weather on mobile